Time;durP1;ratioP1;P1;durP2;ratioP2;P2;SDS_P1;SDS_P2;PMS_P1;PMS_P2;Temp;Humidity;BMP_temperature;BMP_pressure;BME280_temperature;BME280_humidity;BME280_pressure;Samples;Min_cycle;Max_cycle;Signal;HPM_P1;HPM_P2
2023/11/28 00:00:57;;;;;;;4.75;4.35;;;;;;;0.67;100.00;96280.88;15277812;19;20468;-64
2023/11/28 00:06:22;;;;;;;4.28;3.88;;;;;;;0.67;100.00;96267.63;15284498;19;20018;-64
2023/11/28 00:11:47;;;;;;;3.65;3.35;;;;;;;0.66;100.00;96276.56;15281373;19;20022;-61
2023/11/28 00:17:14;;;;;;;3.42;3.13;;;;;;;0.67;100.00;96268.47;15282559;19;20025;-62
2023/11/28 00:22:39;;;;;;;3.10;2.90;;;;;;;0.70;100.00;96275.28;15297328;19;20031;-63
2023/11/28 00:28:04;;;;;;;3.50;3.20;;;;;;;0.69;100.00;96270.97;15295034;19;20093;-61
2023/11/28 00:33:31;;;;;;;3.55;2.90;;;;;;;0.70;100.00;96264.69;15299902;19;20011;-63
2023/11/28 00:38:56;;;;;;;3.22;3.03;;;;;;;0.72;100.00;96265.38;15295457;19;20081;-66
2023/11/28 00:44:20;;;;;;;3.28;3.00;;;;;;;0.70;100.00;96265.53;15299807;19;20014;-63
2023/11/28 00:49:47;;;;;;;3.08;2.88;;;;;;;0.70;100.00;96265.53;15291287;19;20018;-62
2023/11/28 00:55:14;;;;;;;3.00;2.80;;;;;;;0.71;100.00;96269.00;15299746;19;20077;-64
2023/11/28 01:00:45;;;;;;;2.90;2.70;;;;;;;0.70;100.00;96259.38;15285900;19;20028;-64
2023/11/28 01:06:13;;;;;;;3.00;2.80;;;;;;;0.70;100.00;96249.63;15293889;19;20653;-64
2023/11/28 01:11:37;;;;;;;3.30;3.10;;;;;;;0.71;100.00;96261.06;15291467;19;20078;-61
2023/11/28 01:17:06;;;;;;;3.20;3.00;;;;;;;0.71;100.00;96267.16;15295522;19;20014;-64
2023/11/28 01:22:33;;;;;;;2.92;2.72;;;;;;;0.70;100.00;96259.38;15290889;19;20740;-60
2023/11/28 01:27:58;;;;;;;3.42;3.22;;;;;;;0.71;100.00;96256.56;15294359;19;20028;-64
2023/11/28 01:33:23;;;;;;;3.10;2.90;;;;;;;0.73;100.00;96259.91;15288914;19;20014;-61
2023/11/28 01:38:50;;;;;;;3.17;2.97;;;;;;;0.73;100.00;96262.56;15294525;19;20034;-63
2023/11/28 01:44:15;;;;;;;3.40;3.20;;;;;;;0.73;100.00;96259.91;15294356;19;20031;-63
2023/11/28 01:49:41;;;;;;;4.18;3.88;;;;;;;0.74;100.00;96255.47;15290408;19;20021;-63
2023/11/28 01:55:09;;;;;;;4.90;4.50;;;;;;;0.74;100.00;96250.97;15295051;19;20018;-62
2023/11/28 02:00:35;;;;;;;4.70;4.30;;;;;;;0.74;100.00;96250.16;15286696;19;20019;-64
2023/11/28 02:06:01;;;;;;;5.30;4.90;;;;;;;0.73;100.00;96253.78;15287815;19;20021;-63
2023/11/28 02:11:28;;;;;;;6.30;5.80;;;;;;;0.72;100.00;96244.16;15285330;19;20089;-59
2023/11/28 02:16:53;;;;;;;6.53;6.03;;;;;;;0.71;100.00;96251.28;15289401;19;20032;-59
2023/11/28 02:22:19;;;;;;;6.28;5.78;;;;;;;0.72;100.00;96249.47;15289343;19;20020;-62
2023/11/28 02:27:46;;;;;;;5.68;5.28;;;;;;;0.74;100.00;96245.69;15290212;19;20419;-59
2023/11/28 02:33:11;;;;;;;4.00;3.70;;;;;;;0.72;100.00;96246.81;15288716;19;20025;-59
2023/11/28 02:38:35;;;;;;;4.63;4.28;;;;;;;0.64;100.00;96238.81;15288005;19;20021;-60
2023/11/28 02:44:03;;;;;;;4.25;3.90;;;;;;;0.57;100.00;96238.59;15286539;19;20032;-64
2023/11/28 02:49:27;;;;;;;3.80;3.50;;;;;;;0.49;100.00;96227.91;15287295;19;20024;-59
2023/11/28 02:54:52;;;;;;;3.47;3.17;;;;;;;0.42;100.00;96225.03;15289458;19;20026;-56
2023/11/28 03:00:27;;;;;;;3.33;3.03;;;;;;;0.36;100.00;96220.34;15285006;19;20019;-62
2023/11/28 03:05:52;;;;;;;3.90;3.55;;;;;;;0.30;100.00;96219.16;15289574;19;20034;-66
2023/11/28 03:11:17;;;;;;;4.22;3.70;;;;;;;0.27;100.00;96219.44;15284452;19;20500;-60
2023/11/28 03:16:44;;;;;;;4.22;3.83;;;;;;;0.24;100.00;96223.22;15288790;19;20017;-61
2023/11/28 03:22:10;;;;;;;3.85;3.47;;;;;;;0.19;100.00;96220.19;15284014;19;20014;-59
2023/11/28 03:27:35;;;;;;;2.95;2.75;;;;;;;0.15;100.00;96224.13;15286514;19;20010;-59
2023/11/28 03:33:03;;;;;;;2.50;2.30;;;;;;;0.14;100.00;96222.47;15285145;19;20018;-60
2023/11/28 03:38:29;;;;;;;2.28;2.15;;;;;;;0.11;100.00;96217.47;15278485;19;20010;-63
2023/11/28 03:43:53;;;;;;;1.92;1.83;;;;;;;0.09;100.00;96230.88;15287063;19;20038;-58
2023/11/28 03:49:20;;;;;;;2.00;1.90;;;;;;;0.05;100.00;96226.84;15281065;19;20086;-57
2023/11/28 03:54:45;;;;;;;1.80;1.70;;;;;;;0.04;100.00;96224.34;15288217;19;20017;-60
2023/11/28 04:00:12;;;;;;;1.80;1.70;;;;;;;0.02;100.00;96229.78;15295126;19;20077;-55
2023/11/28 04:05:39;;;;;;;1.98;1.88;;;;;;;0.03;100.00;96233.28;15297602;19;20038;-57
2023/11/28 04:11:04;;;;;;;2.20;2.00;;;;;;;0.02;100.00;96239.56;15289396;19;20856;-59
2023/11/28 04:16:28;;;;;;;2.92;2.72;;;;;;;0.01;100.00;96244.00;15294574;19;20022;-58
2023/11/28 04:21:55;;;;;;;3.03;2.72;;;;;;;0.01;100.00;96248.47;15291565;19;20488;-56
2023/11/28 04:27:21;;;;;;;3.08;2.88;;;;;;;-0.01;100.00;96238.03;15291782;19;20600;-57
2023/11/28 04:32:46;;;;;;;3.17;2.90;;;;;;;-0.01;100.00;96249.44;15295776;19;19999;-55
2023/11/28 04:38:14;;;;;;;2.88;2.67;;;;;;;0.01;100.00;96248.47;15295569;19;20026;-60
2023/11/28 04:43:40;;;;;;;2.95;2.75;;;;;;;-0.01;100.00;96257.38;15294458;19;20018;-57
2023/11/28 04:49:04;;;;;;;3.35;3.05;;;;;;;-0.02;100.00;96253.06;15296282;19;20022;-54
2023/11/28 04:54:31;;;;;;;3.00;2.80;;;;;;;-0.02;100.00;96260.19;15298242;19;20379;-57
2023/11/28 05:00:08;;;;;;;2.78;2.58;;;;;;;-0.02;100.00;96261.00;15291617;19;20294;-59
2023/11/28 05:05:33;;;;;;;4.07;3.33;;;;;;;-0.03;100.00;96263.81;14787674;19;10000293;-58
2023/11/28 05:11:05;;;;;;;3.97;3.65;;;;;;;-0.04;100.00;96273.56;15308601;19;20031;-62
2023/11/28 05:16:30;;;;;;;4.57;4.18;;;;;;;-0.06;100.00;96275.50;15291571;19;20097;-61
2023/11/28 05:22:09;;;;;;;4.97;4.57;;;;;;;-0.07;100.00;96284.47;15290244;19;20019;-59
2023/11/28 05:27:36;;;;;;;5.65;5.15;;;;;;;-0.05;100.00;96297.53;15291943;19;20544;-58
2023/11/28 05:33:02;;;;;;;5.80;5.25;;;;;;;-0.07;100.00;96299.50;15287600;19;20555;-61
2023/11/28 05:38:28;;;;;;;5.18;4.68;;;;;;;-0.07;100.00;96304.78;15288209;19;20042;-58
2023/11/28 05:43:59;;;;;;;5.10;4.70;;;;;;;-0.08;100.00;96322.50;15294024;19;20019;-58
2023/11/28 05:49:24;;;;;;;3.40;3.10;;;;;;;-0.10;100.00;96324.44;15285934;19;20025;-57
2023/11/28 05:54:49;;;;;;;3.47;3.15;;;;;;;-0.14;100.00;96338.13;15292861;19;20378;-60
2023/11/28 06:00:26;;;;;;;3.25;2.95;;;;;;;-0.21;100.00;96357.22;15286937;19;20040;-59
2023/11/28 06:05:51;;;;;;;3.97;3.60;;;;;;;-0.26;100.00;96353.34;15292600;19;20288;-58
2023/11/28 06:11:17;;;;;;;4.10;3.80;;;;;;;-0.27;100.00;96356.94;15286968;19;20093;-57
2023/11/28 06:16:44;;;;;;;4.57;4.18;;;;;;;-0.29;100.00;96359.75;15290313;19;20496;-58
2023/11/28 06:22:10;;;;;;;4.80;4.30;;;;;;;-0.34;100.00;96368.13;15282896;19;20535;-57
2023/11/28 06:27:35;;;;;;;5.18;4.68;;;;;;;-0.37;100.00;96373.69;15290161;19;20014;-57
2023/11/28 06:33:02;;;;;;;4.70;4.30;;;;;;;-0.42;100.00;96378.59;15287988;19;20085;-57
2023/11/28 06:38:27;;;;;;;4.22;3.92;;;;;;;-0.46;100.00;96387.78;15289514;19;20014;-57
2023/11/28 06:43:51;;;;;;;5.15;4.65;;;;;;;-0.48;100.00;96408.25;15291368;19;20480;-59
2023/11/28 06:49:23;;;;;;;5.60;5.10;;;;;;;-0.50;100.00;96419.00;15288537;19;20082;-59
2023/11/28 06:54:49;;;;;;;5.88;5.35;;;;;;;-0.53;100.00;96421.09;15283535;19;20464;-57
2023/11/28 07:00:22;;;;;;;5.90;5.40;;;;;;;-0.53;100.00;96431.66;15284982;19;20018;-56
2023/11/28 07:05:49;;;;;;;6.20;5.60;;;;;;;-0.59;100.00;96437.50;15291026;19;20078;-55
2023/11/28 07:11:15;;;;;;;6.43;5.80;;;;;;;-0.70;100.00;96457.81;15284867;19;20018;-57
2023/11/28 07:16:40;;;;;;;6.75;6.05;;;;;;;-0.69;100.00;96462.16;15288567;19;20017;-55
2023/11/28 07:22:08;;;;;;;7.18;6.47;;;;;;;-0.78;100.00;96466.44;15286051;19;20026;-59
2023/11/28 07:27:34;;;;;;;6.45;5.85;;;;;;;-0.85;100.00;96481.22;15281859;19;20025;-59
2023/11/28 07:32:58;;;;;;;6.70;6.00;;;;;;;-0.88;100.00;96483.28;15285503;19;20020;-57
2023/11/28 07:38:26;;;;;;;6.57;5.95;;;;;;;-0.89;100.00;96505.41;15287622;19;20018;-56
2023/11/28 07:43:50;;;;;;;8.00;7.20;;;;;;;-0.96;100.00;96505.94;15286995;19;20031;-58
2023/11/28 07:49:15;;;;;;;8.73;7.47;;;;;;;-0.99;100.00;96515.97;15285377;19;20011;-58
2023/11/28 07:54:42;;;;;;;8.95;7.97;;;;;;;-1.03;100.00;96520.69;15284672;19;20011;-57
2023/11/28 08:00:09;;;;;;;7.95;7.15;;;;;;;-1.06;100.00;96526.25;15274699;19;20028;-57
2023/11/28 08:05:33;;;;;;;9.13;7.60;;;;;;;-1.09;100.00;96526.50;15284222;19;20029;-60
2023/11/28 08:11:01;;;;;;;7.75;6.95;;;;;;;-1.12;100.00;96553.22;15280563;19;20025;-60
2023/11/28 08:16:26;;;;;;;7.63;6.80;;;;;;;-1.13;100.00;96559.47;15287526;19;20022;-60
2023/11/28 08:21:51;;;;;;;8.88;7.28;;;;;;;-1.14;100.00;96573.66;15280220;19;20014;-59
2023/11/28 08:27:18;;;;;;;8.02;6.63;;;;;;;-1.17;100.00;96572.09;15285492;19;20379;-58
2023/11/28 08:32:43;;;;;;;7.65;6.57;;;;;;;-1.19;100.00;96583.78;15277879;19;20090;-58
2023/11/28 08:38:09;;;;;;;6.75;6.03;;;;;;;-1.21;100.00;96604.19;15283268;19;20018;-55
2023/11/28 08:43:36;;;;;;;7.35;6.40;;;;;;;-1.27;100.00;96614.34;15292823;19;20474;-58
2023/11/28 08:49:01;;;;;;;7.22;6.53;;;;;;;-1.26;100.00;96616.00;15296310;19;20028;-57
2023/11/28 08:54:26;;;;;;;7.03;6.18;;;;;;;-1.21;100.00;96628.81;15295711;19;20017;-60
2023/11/28 09:00:00;;;;;;;8.40;5.60;;;;;;;-1.16;100.00;96629.25;15294190;19;20451;-62
2023/11/28 09:05:25;;;;;;;6.38;5.78;;;;;;;-1.14;100.00;96645.00;15293194;19;20017;-60
2023/11/28 09:10:49;;;;;;;6.35;5.53;;;;;;;-1.11;100.00;96653.47;15287749;19;20010;-60
2023/11/28 09:16:20;;;;;;;5.43;4.82;;;;;;;-1.04;100.00;96680.22;15294755;19;20018;-59
2023/11/28 09:21:45;;;;;;;5.40;4.90;;;;;;;-1.02;100.00;96675.66;15292645;19;20019;-57
2023/11/28 09:27:12;;;;;;;5.95;5.35;;;;;;;-1.02;100.00;96688.00;15295591;19;20484;-59
2023/11/28 09:32:39;;;;;;;6.70;6.05;;;;;;;-1.06;100.00;96692.72;15290759;19;20090;-58
2023/11/28 09:38:04;;;;;;;7.07;5.90;;;;;;;-1.12;100.00;96696.72;15290726;19;20021;-58
2023/11/28 09:43:32;;;;;;;6.90;5.97;;;;;;;-1.22;100.00;96695.84;15295862;19;20017;-58
2023/11/28 09:49:03;;;;;;;7.53;6.10;;;;;;;-1.27;100.00;96704.16;15292468;19;20010;-62
2023/11/28 09:54:27;;;;;;;5.85;5.10;;;;;;;-1.34;100.00;96713.56;15291620;19;20090;-60
2023/11/28 09:59:54;;;;;;;6.72;5.50;;;;;;;-1.37;100.00;96718.25;15290678;19;20050;-59
2023/11/28 10:05:25;;;;;;;6.28;5.63;;;;;;;-1.43;100.00;96717.81;15296116;19;20017;-58
2023/11/28 10:10:53;;;;;;;5.75;5.15;;;;;;;-1.45;100.00;96716.25;15290613;19;20595;-55
2023/11/28 10:16:18;;;;;;;5.07;4.57;;;;;;;-1.49;100.00;96720.97;15294635;19;20624;-58
2023/11/28 10:21:48;;;;;;;5.43;4.72;;;;;;;-1.47;100.00;96742.00;15289555;19;20010;-59
2023/11/28 10:27:15;;;;;;;5.38;4.88;;;;;;;-1.50;100.00;96729.84;15292462;19;20018;-58
2023/11/28 10:32:40;;;;;;;4.70;4.05;;;;;;;-1.50;100.00;96743.06;15288884;19;20354;-59
2023/11/28 10:38:07;;;;;;;4.93;4.43;;;;;;;-1.53;100.00;96739.84;15285075;19;20482;-58
2023/11/28 10:43:33;;;;;;;5.78;4.57;;;;;;;-1.53;100.00;96763.59;15291288;19;20482;-61
2023/11/28 10:48:58;;;;;;;4.95;4.40;;;;;;;-1.57;100.00;96761.22;15289169;19;20006;-57
2023/11/28 10:54:27;;;;;;;8.27;4.85;;;;;;;-1.59;100.00;96765.78;15289253;19;20022;-58
2023/11/28 10:59:56;;;;;;;4.25;3.83;;;;;;;-1.59;100.00;96765.78;15287156;19;20030;-57
2023/11/28 11:05:23;;;;;;;4.78;4.25;;;;;;;-1.59;100.00;96767.59;15287756;19;20018;-57
2023/11/28 11:10:52;;;;;;;4.63;3.97;;;;;;;-1.53;100.00;96779.44;15283189;19;20010;-55
2023/11/28 11:16:26;;;;;;;4.88;4.38;;;;;;;-1.52;100.00;96799.63;15290229;19;20021;-59
2023/11/28 11:21:59;;;;;;;4.80;4.30;;;;;;;-1.50;100.00;96797.69;15286990;19;20011;-54
2023/11/28 11:27:28;;;;;;;3.90;3.50;;;;;;;-1.44;100.00;96813.88;15288466;19;20017;-59
2023/11/28 11:32:52;;;;;;;4.30;3.67;;;;;;;-1.43;100.00;96822.63;15287503;19;20011;-60
2023/11/28 11:38:28;;;;;;;4.72;3.97;;;;;;;-1.37;100.00;96834.50;15288161;19;20018;-56
2023/11/28 11:43:56;;;;;;;3.95;3.33;;;;;;;-1.41;100.00;96841.84;15281248;19;20025;-60
2023/11/28 11:49:22;;;;;;;4.20;3.80;;;;;;;-1.34;100.00;96850.91;15286580;19;20583;-56
2023/11/28 11:54:47;;;;;;;3.45;3.15;;;;;;;-1.40;100.00;96856.72;15284530;19;20029;-59
2023/11/28 12:00:22;;;;;;;3.55;3.22;;;;;;;-1.43;100.00;96851.69;15279677;19;20029;-58
2023/11/28 12:05:53;;;;;;;3.40;3.10;;;;;;;-1.47;100.00;96860.84;15288867;19;20467;-55
2023/11/28 12:11:18;;;;;;;3.33;3.03;;;;;;;-1.49;100.00;96868.03;15284438;19;20441;-60
2023/11/28 12:16:49;;;;;;;3.33;2.90;;;;;;;-1.61;100.00;96881.28;15289259;19;20019;-58
2023/11/28 12:22:13;;;;;;;3.53;3.22;;;;;;;-1.67;100.00;96884.38;15297277;19;20040;-58
2023/11/28 12:27:38;;;;;;;3.67;3.38;;;;;;;-1.66;100.00;96893.16;15299417;19;20082;-62
2023/11/28 12:33:05;;;;;;;3.90;3.50;;;;;;;-1.63;100.00;96906.94;15320680;19;20083;-61
2023/11/28 12:38:30;;;;;;;4.22;3.55;;;;;;;-1.65;100.00;96908.88;15297874;19;20018;-62
2023/11/28 12:44:00;;;;;;;4.35;3.92;;;;;;;-1.71;100.00;96918.13;15296645;19;20018;-60
2023/11/28 12:49:30;;;;;;;4.45;4.00;;;;;;;-1.71;100.00;96920.75;15290596;19;20014;-59
2023/11/28 12:54:54;;;;;;;5.20;4.70;;;;;;;-1.75;100.00;96942.25;15293169;19;20427;-59
2023/11/28 13:00:25;;;;;;;4.97;4.57;;;;;;;-1.83;100.00;96950.75;15292335;19;20507;-58
2023/11/28 13:05:53;;;;;;;4.93;4.40;;;;;;;-1.86;100.00;96964.19;15296748;19;20031;-61
2023/11/28 13:11:19;;;;;;;4.65;4.22;;;;;;;-1.91;100.00;96971.66;15291340;19;20078;-60
2023/11/28 13:16:44;;;;;;;5.82;4.00;;;;;;;-1.94;100.00;96972.69;15291439;19;20078;-60
2023/11/28 13:22:26;;;;;;;5.47;4.60;;;;;;;-1.93;100.00;96998.13;15287575;19;20015;-60
2023/11/28 13:27:52;;;;;;;5.65;4.57;;;;;;;-2.01;100.00;97005.81;15290421;19;20014;-59
2023/11/28 13:33:17;;;;;;;5.85;5.20;;;;;;;-2.01;100.00;97011.09;15292819;19;20025;-60
2023/11/28 13:38:45;;;;;;;5.60;4.70;;;;;;;-2.04;100.00;97027.16;15291468;19;20018;-61
2023/11/28 13:44:10;;;;;;;5.47;4.85;;;;;;;-2.02;100.00;97038.44;15293831;19;20042;-57
2023/11/28 13:49:35;;;;;;;6.70;5.40;;;;;;;-2.04;100.00;97053.53;15291890;19;20018;-59
2023/11/28 13:55:02;;;;;;;6.68;5.82;;;;;;;-2.07;100.00;97062.53;15284736;19;20017;-61
2023/11/28 14:00:27;;;;;;;5.88;5.28;;;;;;;-2.09;100.00;97077.66;15281992;19;20074;-60
2023/11/28 14:05:51;;;;;;;6.00;5.32;;;;;;;-2.10;100.00;97086.50;15286197;19;20014;-59
2023/11/28 14:11:19;;;;;;;7.07;5.30;;;;;;;-2.08;100.00;97089.06;15287847;19;20010;-62
2023/11/28 14:16:43;;;;;;;6.38;5.65;;;;;;;-2.08;100.00;97110.16;15291512;19;20025;-62
2023/11/28 14:22:09;;;;;;;6.35;5.68;;;;;;;-2.11;100.00;97111.22;15288139;19;20010;-62
2023/11/28 14:27:36;;;;;;;6.60;5.93;;;;;;;-2.12;100.00;97114.84;15286095;19;20022;-62
2023/11/28 14:33:04;;;;;;;6.25;5.57;;;;;;;-2.14;100.00;97126.44;15290616;19;20405;-62
2023/11/28 14:38:28;;;;;;;6.38;5.35;;;;;;;-2.18;100.00;97131.97;15290448;19;20015;-62
2023/11/28 14:43:56;;;;;;;6.43;5.47;;;;;;;-2.20;100.00;97144.41;15284640;19;20523;-61
2023/11/28 14:49:20;;;;;;;6.13;5.53;;;;;;;-2.19;100.00;97159.28;15284124;19;20031;-62
2023/11/28 14:54:45;;;;;;;7.07;6.22;;;;;;;-2.23;100.00;97172.81;15276201;19;20025;-61
2023/11/28 15:00:16;;;;;;;8.82;6.40;;;;;;;-2.20;100.00;97186.63;15279951;19;20022;-62
2023/11/28 15:05:41;;;;;;;6.10;5.50;;;;;;;-2.23;100.00;97205.31;15290675;19;20014;-62
2023/11/28 15:11:05;;;;;;;5.47;4.95;;;;;;;-2.23;100.00;97212.38;15286805;19;20030;-62
2023/11/28 15:16:33;;;;;;;5.03;4.07;;;;;;;-2.27;100.00;97227.59;15285467;19;20026;-63
2023/11/28 15:21:57;;;;;;;4.10;3.70;;;;;;;-2.34;100.00;97227.19;15281547;19;20030;-60
2023/11/28 15:27:22;;;;;;;4.03;3.20;;;;;;;-2.40;100.00;97237.31;15286648;19;20028;-62
2023/11/28 15:32:50;;;;;;;3.42;3.00;;;;;;;-2.41;100.00;97238.31;15281711;19;20022;-61
2023/11/28 15:38:15;;;;;;;3.60;3.30;;;;;;;-2.42;100.00;97258.53;15288124;19;20018;-61
2023/11/28 15:43:39;;;;;;;3.75;3.05;;;;;;;-2.41;100.00;97264.69;15281527;19;20019;-61
2023/11/28 15:49:07;;;;;;;4.45;3.40;;;;;;;-2.46;100.00;97269.44;15285000;19;20015;-60
2023/11/28 15:54:31;;;;;;;3.17;2.88;;;;;;;-2.48;100.00;97280.09;15300274;19;20082;-62
2023/11/28 16:00:03;;;;;;;20.73;17.05;;;;;;;-2.54;100.00;97291.06;15290684;19;20019;-62
2023/11/28 16:05:31;;;;;;;3.30;2.72;;;;;;;-2.60;100.00;97288.84;15294674;19;20376;-61
2023/11/28 16:10:56;;;;;;;3.67;2.90;;;;;;;-2.64;100.00;97293.47;15292254;19;20029;-62
2023/11/28 16:16:21;;;;;;;3.10;2.80;;;;;;;-2.66;100.00;97304.13;15286807;19;20024;-63
2023/11/28 16:21:48;;;;;;;5.07;3.00;;;;;;;-2.66;100.00;97312.06;15290200;19;20006;-62
2023/11/28 16:27:13;;;;;;;3.00;2.78;;;;;;;-2.68;100.00;97323.66;15295623;19;20371;-62
2023/11/28 16:32:39;;;;;;;2.92;2.72;;;;;;;-2.70;100.00;97321.09;15271976;19;20490;-60
2023/11/28 16:38:07;;;;;;;3.70;2.92;;;;;;;-2.65;100.00;97331.38;15296676;19;20014;-62
2023/11/28 16:43:31;;;;;;;3.97;3.50;;;;;;;-2.62;100.00;97339.03;15292249;19;20044;-62
2023/11/28 16:48:56;;;;;;;3.53;2.90;;;;;;;-2.61;100.00;97351.28;15291044;19;20014;-62
2023/11/28 16:54:28;;;;;;;3.80;3.38;;;;;;;-2.64;100.00;97362.88;15286895;19;20018;-62
2023/11/28 16:59:53;;;;;;;3.67;3.00;;;;;;;-2.65;100.00;97371.75;15282710;19;20015;-62
2023/11/28 17:05:20;;;;;;;3.90;3.42;;;;;;;-2.62;100.00;97378.59;15286618;19;20021;-62
2023/11/28 17:10:49;;;;;;;4.07;3.35;;;;;;;-2.62;100.00;97370.69;15289998;19;20368;-61
2023/11/28 17:16:14;;;;;;;4.95;3.95;;;;;;;-2.56;100.00;97388.75;15293284;19;20011;-62
2023/11/28 17:21:39;;;;;;;3.63;3.30;;;;;;;-2.56;100.00;97385.25;15289129;19;20495;-62
2023/11/28 17:27:06;;;;;;;4.40;3.53;;;;;;;-2.56;100.00;97399.28;15296875;19;20014;-62
2023/11/28 17:32:31;;;;;;;4.25;3.45;;;;;;;-2.58;100.00;97402.94;15290411;19;20466;-62
2023/11/28 17:37:56;;;;;;;4.53;3.50;;;;;;;-2.60;100.00;97410.97;15284927;19;20014;-58
2023/11/28 17:43:24;;;;;;;3.53;2.85;;;;;;;-2.62;100.00;97412.88;15293978;19;20010;-60
2023/11/28 17:48:49;;;;;;;3.97;3.38;;;;;;;-2.67;100.00;97420.25;15292723;19;20044;-61
2023/11/28 17:54:14;;;;;;;3.42;2.83;;;;;;;-2.68;100.00;97421.19;15291337;19;20018;-60
2023/11/28 17:59:41;;;;;;;2.90;2.60;;;;;;;-2.69;100.00;97422.16;15290642;19;20017;-59
2023/11/28 18:05:07;;;;;;;3.25;2.72;;;;;;;-2.70;100.00;97428.38;15291570;19;20010;-55
2023/11/28 18:10:32;;;;;;;5.57;4.20;;;;;;;-2.73;100.00;97425.94;15285302;19;20021;-60
2023/11/28 18:16:00;;;;;;;9.90;7.00;;;;;;;-2.75;100.00;97427.81;15283558;19;20018;-59
2023/11/28 18:21:24;;;;;;;2.72;2.30;;;;;;;-2.73;100.00;97434.69;15277229;19;20046;-62
2023/11/28 18:26:49;;;;;;;6.55;5.22;;;;;;;-2.77;100.00;97435.00;15292907;19;20027;-59
2023/11/28 18:32:16;;;;;;;4.70;3.38;;;;;;;-2.80;100.00;97447.44;15285056;19;20021;-59
2023/11/28 18:37:42;;;;;;;3.38;2.58;;;;;;;-2.79;100.00;97451.78;15288573;19;20082;-58
2023/11/28 18:43:06;;;;;;;3.58;2.70;;;;;;;-2.79;100.00;97467.59;15283709;19;20007;-65
2023/11/28 18:48:34;;;;;;;2.90;2.42;;;;;;;-2.78;100.00;97468.41;15278685;19;20022;-64
2023/11/28 18:53:58;;;;;;;3.58;3.05;;;;;;;-2.81;100.00;97480.00;15283218;19;20022;-62
2023/11/28 18:59:23;;;;;;;3.63;3.30;;;;;;;-2.86;100.00;97479.47;15282943;19;20086;-61
2023/11/28 19:04:50;;;;;;;2.92;2.35;;;;;;;-2.89;100.00;97486.72;15286847;19;20017;-62
2023/11/28 19:10:15;;;;;;;2.60;2.40;;;;;;;-2.91;100.00;97486.84;15283692;19;20018;-58
2023/11/28 19:15:40;;;;;;;5.72;2.40;;;;;;;-2.93;100.00;97491.34;15279598;19;20011;-62
2023/11/28 19:21:09;;;;;;;2.47;2.28;;;;;;;-2.98;100.00;97489.03;15286116;19;20028;-56
2023/11/28 19:26:34;;;;;;;2.40;2.20;;;;;;;-2.97;100.00;97500.41;15285594;19;20024;-60
2023/11/28 19:32:00;;;;;;;2.85;2.33;;;;;;;-2.92;100.00;97500.09;15304415;19;20292;-60
2023/11/28 19:37:27;;;;;;;15.73;7.65;;;;;;;-2.86;100.00;97508.44;15281347;19;20363;-61
2023/11/28 19:42:54;;;;;;;2.90;2.65;;;;;;;-2.89;100.00;97505.19;15280468;19;20025;-60
2023/11/28 19:48:18;;;;;;;2.30;2.10;;;;;;;-2.90;100.00;97506.97;15277366;19;20037;-60
2023/11/28 19:53:46;;;;;;;3.15;2.45;;;;;;;-2.94;100.00;97500.22;15283472;19;20039;-60
2023/11/28 19:59:10;;;;;;;2.97;2.50;;;;;;;-2.95;100.00;97511.69;15277638;19;20022;-60
2023/11/28 20:04:35;;;;;;;2.92;2.55;;;;;;;-2.96;100.00;97517.91;15282947;19;20363;-60
2023/11/28 20:10:02;;;;;;;3.35;3.05;;;;;;;-2.92;100.00;97510.63;15278043;19;20011;-60
2023/11/28 20:15:27;;;;;;;5.25;3.97;;;;;;;-2.83;100.00;97513.53;15282466;19;20050;-61
2023/11/28 20:20:51;;;;;;;3.10;2.90;;;;;;;-2.69;100.00;97517.06;15271113;19;20365;-62
2023/11/28 20:26:19;;;;;;;2.83;2.63;;;;;;;-2.58;100.00;97524.25;15283185;19;20074;-61
2023/11/28 20:31:43;;;;;;;2.60;2.40;;;;;;;-2.56;100.00;97527.63;15276819;19;20029;-61
2023/11/28 20:37:08;;;;;;;10.27;6.95;;;;;;;-2.54;100.00;97521.34;15283563;19;20011;-60
2023/11/28 20:42:40;;;;;;;4.45;3.60;;;;;;;-2.52;100.00;97523.84;15288494;19;20010;-60
2023/11/28 20:48:05;;;;;;;3.67;3.00;;;;;;;-2.51;100.00;97520.28;15292124;19;20025;-60
2023/11/28 20:53:29;;;;;;;5.60;4.25;;;;;;;-2.49;100.00;97521.03;15288509;19;20022;-60
2023/11/28 20:58:57;;;;;;;5.35;3.90;;;;;;;-2.50;100.00;97520.16;15287441;19;20021;-60
2023/11/28 21:04:21;;;;;;;4.80;4.10;;;;;;;-2.50;100.00;97525.44;15293900;19;20019;-59
2023/11/28 21:09:46;;;;;;;4.20;3.80;;;;;;;-2.55;100.00;97532.81;15292373;19;20024;-58
2023/11/28 21:15:14;;;;;;;5.40;3.70;;;;;;;-2.55;100.00;97521.41;15290703;19;20018;-59
2023/11/28 21:20:39;;;;;;;4.55;3.72;;;;;;;-2.56;100.00;97522.34;15289890;19;20050;-61
2023/11/28 21:26:03;;;;;;;5.55;3.88;;;;;;;-2.62;100.00;97531.53;15290058;19;20031;-56
2023/11/28 21:31:31;;;;;;;5.05;4.10;;;;;;;-2.66;100.00;97522.13;15287705;19;20017;-58
2023/11/28 21:36:55;;;;;;;4.28;3.85;;;;;;;-2.66;100.00;97530.06;15291857;19;20031;-58
2023/11/28 21:42:21;;;;;;;4.35;3.38;;;;;;;-2.59;100.00;97539.25;15287307;19;20021;-57
2023/11/28 21:47:48;;;;;;;4.15;3.72;;;;;;;-2.55;100.00;97551.28;15289998;19;20082;-59
2023/11/28 21:53:13;;;;;;;5.13;3.67;;;;;;;-2.53;100.00;97549.38;15292230;19;20021;-59
2023/11/28 21:58:38;;;;;;;4.35;3.92;;;;;;;-2.51;100.00;97551.94;15282670;19;20049;-59
2023/11/28 22:04:06;;;;;;;4.43;3.70;;;;;;;-2.45;100.00;97556.78;15292902;19;20074;-59
2023/11/28 22:09:31;;;;;;;5.03;4.47;;;;;;;-2.43;100.00;97556.69;15290103;19;20018;-58
2023/11/28 22:14:56;;;;;;;4.63;3.92;;;;;;;-2.44;100.00;97547.09;15290798;19;20093;-57
2023/11/28 22:20:25;;;;;;;6.82;4.72;;;;;;;-2.49;100.00;97550.88;15288511;19;20011;-57
2023/11/28 22:25:50;;;;;;;5.03;4.03;;;;;;;-2.51;100.00;97552.75;15291681;19;20508;-57
2023/11/28 22:31:14;;;;;;;4.35;3.95;;;;;;;-2.54;100.00;97554.75;15279319;19;20021;-59
2023/11/28 22:36:42;;;;;;;5.63;4.18;;;;;;;-2.54;100.00;97550.34;15290366;19;20031;-58
2023/11/28 22:42:07;;;;;;;4.50;4.10;;;;;;;-2.56;100.00;97562.78;15286695;19;20042;-58
2023/11/28 22:47:31;;;;;;;4.90;4.40;;;;;;;-2.53;100.00;97559.09;15290802;19;20014;-58
2023/11/28 22:52:58;;;;;;;5.00;4.30;;;;;;;-2.60;100.00;97552.53;15289706;19;20532;-58
2023/11/28 22:58:23;;;;;;;5.57;4.47;;;;;;;-2.70;100.00;97553.09;15282452;19;20014;-55
2023/11/28 23:03:55;;;;;;;6.57;5.30;;;;;;;-2.67;100.00;97552.09;15281032;19;20025;-57
2023/11/28 23:09:23;;;;;;;5.43;4.93;;;;;;;-2.56;100.00;97549.59;15285748;19;20017;-57
2023/11/28 23:14:48;;;;;;;5.20;4.70;;;;;;;-2.51;100.00;97541.38;15289429;19;20028;-57
2023/11/28 23:20:13;;;;;;;5.03;4.53;;;;;;;-2.47;100.00;97532.31;15283420;19;20077;-58
2023/11/28 23:25:41;;;;;;;4.70;4.20;;;;;;;-2.48;100.00;97531.47;15030031;19;5001511;-54
2023/11/28 23:31:06;;;;;;;5.47;4.78;;;;;;;-2.52;100.00;97518.59;15282980;19;20010;-54
2023/11/28 23:36:31;;;;;;;6.57;5.18;;;;;;;-2.57;100.00;97516.25;15281562;19;20010;-56
2023/11/28 23:41:59;;;;;;;4.82;4.43;;;;;;;-2.59;100.00;97510.22;15282193;19;20032;-58
2023/11/28 23:47:24;;;;;;;5.35;4.50;;;;;;;-2.64;100.00;97500.00;15286727;19;20015;-60
2023/11/28 23:52:49;;;;;;;5.05;4.63;;;;;;;-2.61;100.00;97501.56;15284751;19;20014;-56
2023/11/28 23:58:16;;;;;;;4.97;4.53;;;;;;;-2.69;100.00;97490.69;15284219;19;20014;-60
